Time;durP1;ratioP1;P1;durP2;ratioP2;P2;SDS_P1;SDS_P2;PMS_P1;PMS_P2;Temp;Humidity;BMP_temperature;BMP_pressure;BME280_temperature;BME280_humidity;BME280_pressure;Samples;Min_cycle;Max_cycle;Signal;HPM_P1;HPM_P2
2022/05/13 00:00:44;;;;;;;5.38;1.50;;;15.10;84.00;;;;;;5031424;28;20084;-78
2022/05/13 00:03:10;;;;;;;5.05;1.67;;;15.00;84.40;;;;;;5047552;28;20047;-78
2022/05/13 00:05:35;;;;;;;4.30;1.30;;;15.00;84.60;;;;;;5040477;28;20268;-77
2022/05/13 00:08:01;;;;;;;5.18;1.92;;;15.00;84.70;;;;;;5035810;28;20033;-78
2022/05/13 00:10:27;;;;;;;6.20;1.42;;;15.00;85.10;;;;;;5046205;28;20032;-79
2022/05/13 00:12:52;;;;;;;3.45;1.63;;;14.90;85.50;;;;;;5047206;28;20040;-80
2022/05/13 00:15:24;;;;;;;3.17;1.67;;;14.90;85.60;;;;;;5045561;28;20559;-78
2022/05/13 00:17:50;;;;;;;3.83;1.80;;;14.90;85.90;;;;;;5041420;28;20108;-78
2022/05/13 00:20:16;;;;;;;4.80;1.45;;;14.80;86.10;;;;;;5039017;28;20030;-77
2022/05/13 00:22:50;;;;;;;4.18;2.08;;;14.80;86.30;;;;;;5045184;28;20080;-80
2022/05/13 00:25:19;;;;;;;4.80;1.50;;;14.80;86.70;;;;;;5038866;28;21588;-78
2022/05/13 00:27:45;;;;;;;3.95;1.60;;;14.70;87.20;;;;;;5044088;28;20056;-78
2022/05/13 00:30:11;;;;;;;2.30;1.33;;;14.70;87.60;;;;;;5040332;28;20361;-78
2022/05/13 00:32:37;;;;;;;5.03;1.77;;;14.70;87.70;;;;;;5080948;28;20036;-78
2022/05/13 00:35:04;;;;;;;3.05;1.77;;;14.70;88.00;;;;;;5049112;28;20407;-78
2022/05/13 00:37:29;;;;;;;2.78;1.88;;;14.70;88.00;;;;;;5043896;28;20035;-78
2022/05/13 00:39:55;;;;;;;4.00;1.70;;;14.60;88.10;;;;;;5043011;28;20028;-78
2022/05/13 00:42:22;;;;;;;2.08;1.48;;;14.60;88.10;;;;;;5039895;28;20045;-81
2022/05/13 00:44:48;;;;;;;2.97;1.75;;;14.60;88.20;;;;;;5041728;28;20029;-80
2022/05/13 00:47:14;;;;;;;3.63;1.63;;;14.60;88.50;;;;;;5043582;28;20075;-78
2022/05/13 00:49:40;;;;;;;3.95;2.13;;;14.50;88.90;;;;;;5047739;28;20074;-77
2022/05/13 00:52:08;;;;;;;2.50;1.58;;;14.50;89.40;;;;;;5047003;28;20032;-80
2022/05/13 00:54:35;;;;;;;2.90;1.70;;;14.50;89.80;;;;;;5043544;28;20041;-78
2022/05/13 00:57:01;;;;;;;4.43;1.77;;;14.50;90.00;;;;;;5045629;28;20036;-77
2022/05/13 00:59:30;;;;;;;3.47;1.50;;;14.40;90.10;;;;;;5049393;28;20025;-77
2022/05/13 01:01:55;;;;;;;3.42;1.70;;;14.40;90.30;;;;;;5039241;28;20026;-80
2022/05/13 01:04:21;;;;;;;4.75;2.28;;;14.30;90.40;;;;;;5050073;28;20297;-78
2022/05/13 01:06:50;;;;;;;4.70;1.90;;;14.20;90.50;;;;;;5045685;28;20029;-77
2022/05/13 01:09:17;;;;;;;3.30;1.70;;;14.20;90.70;;;;;;5044069;28;20063;-77
2022/05/13 01:11:44;;;;;;;2.40;1.70;;;14.20;90.80;;;;;;5047151;28;20040;-79
2022/05/13 01:14:18;;;;;;;3.58;1.90;;;14.10;91.00;;;;;;5050646;28;20025;-77
2022/05/13 01:19:28;;;;;;;4.72;2.20;;;14.00;91.30;;;;;;5039491;28;20663;-77
2022/05/13 01:21:53;;;;;;;2.25;1.60;;;14.00;91.50;;;;;;5044361;28;20021;-77
2022/05/13 01:24:21;;;;;;;3.05;2.13;;;14.00;91.50;;;;;;5046508;28;20483;-78
2022/05/13 01:26:47;;;;;;;3.60;1.73;;;14.00;91.60;;;;;;5045084;28;20522;-77
2022/05/13 01:29:12;;;;;;;3.03;1.65;;;14.00;91.70;;;;;;5037179;28;20033;-78
2022/05/13 01:31:40;;;;;;;5.38;1.83;;;14.00;91.80;;;;;;5037533;28;20372;-81
2022/05/13 01:34:09;;;;;;;2.78;2.05;;;13.90;91.90;;;;;;5044205;28;20041;-78
2022/05/13 01:36:36;;;;;;;2.97;1.73;;;14.00;92.00;;;;;;5041329;28;20029;-78
2022/05/13 01:39:02;;;;;;;3.55;1.80;;;14.00;92.00;;;;;;5042464;28;20479;-78
2022/05/13 01:41:28;;;;;;;3.30;1.92;;;14.00;92.10;;;;;;5043019;28;20082;-77
2022/05/13 01:43:54;;;;;;;2.97;2.15;;;14.00;92.20;;;;;;5044381;28;20119;-79
2022/05/13 01:46:22;;;;;;;5.63;1.83;;;14.00;92.30;;;;;;5036771;28;20026;-83
2022/05/13 01:48:49;;;;;;;4.70;1.83;;;13.90;92.30;;;;;;5047223;28;20025;-78
2022/05/13 01:51:14;;;;;;;3.40;1.83;;;13.90;92.40;;;;;;5043909;28;20025;-80
2022/05/13 01:53:40;;;;;;;7.18;2.83;;;13.90;92.50;;;;;;5038294;28;20041;-79
2022/05/13 01:56:06;;;;;;;3.83;1.58;;;13.90;92.60;;;;;;5047444;28;20605;-78
2022/05/13 01:58:32;;;;;;;3.92;2.10;;;13.80;92.70;;;;;;5037784;28;20389;-80
2022/05/13 02:00:59;;;;;;;6.43;1.95;;;13.80;92.80;;;;;;5061292;28;20167;-79
2022/05/13 02:03:45;;;;;;;2.78;1.50;;;13.80;92.90;;;;;;5038575;28;20034;-78
2022/05/13 02:06:22;;;;;;;2.90;1.60;;;13.70;93.00;;;;;;5035291;28;20471;-78
2022/05/13 02:08:50;;;;;;;3.10;1.75;;;13.70;93.10;;;;;;5046785;28;20075;-81
2022/05/13 02:11:17;;;;;;;3.17;1.70;;;13.60;93.50;;;;;;5044933;28;20040;-78
2022/05/13 02:13:43;;;;;;;3.28;1.80;;;13.60;93.40;;;;;;5048468;28;20117;-78
2022/05/13 02:16:10;;;;;;;1.92;1.67;;;13.50;93.40;;;;;;5038033;28;20108;-81
2022/05/13 02:18:36;;;;;;;7.43;1.52;;;13.50;93.60;;;;;;5041605;28;20072;-80
2022/05/13 02:21:02;;;;;;;4.22;1.95;;;13.50;93.70;;;;;;5044839;28;20029;-77
2022/05/13 02:23:27;;;;;;;2.65;1.80;;;13.50;93.70;;;;;;5047528;28;20037;-78
2022/05/13 02:25:59;;;;;;;4.90;1.70;;;13.50;93.80;;;;;;5042029;28;20060;-77
2022/05/13 02:28:25;;;;;;;3.72;1.88;;;13.40;93.80;;;;;;5042647;28;20088;-77
2022/05/13 02:30:50;;;;;;;2.72;1.80;;;13.40;93.90;;;;;;5047373;28;20402;-77
2022/05/13 02:33:16;;;;;;;4.50;2.22;;;13.40;93.90;;;;;;5046164;28;20040;-77
2022/05/13 02:35:41;;;;;;;4.03;2.75;;;13.30;94.10;;;;;;5037991;28;20037;-77
2022/05/13 02:38:07;;;;;;;8.10;2.75;;;13.30;94.30;;;;;;5046594;28;20029;-81
2022/05/13 02:43:17;;;;;;;3.78;1.85;;;13.30;94.50;;;;;;5039476;28;20076;-79
2022/05/13 02:45:42;;;;;;;6.53;2.70;;;13.30;94.50;;;;;;5035809;28;20064;-77
2022/05/13 02:48:08;;;;;;;4.95;2.35;;;13.30;94.60;;;;;;5044258;28;20040;-79
2022/05/13 02:50:34;;;;;;;3.42;2.20;;;13.30;94.60;;;;;;5044053;28;20033;-78
2022/05/13 02:52:59;;;;;;;5.03;2.45;;;13.30;94.70;;;;;;5042655;28;20029;-79
2022/05/13 02:55:26;;;;;;;5.55;2.13;;;13.30;94.90;;;;;;5038064;28;20037;-81
2022/05/13 02:57:51;;;;;;;5.15;2.30;;;13.30;94.70;;;;;;5044034;28;20025;-77
2022/05/13 03:00:17;;;;;;;4.50;2.33;;;13.30;94.70;;;;;;5043611;28;20497;-78
2022/05/13 03:02:45;;;;;;;3.85;2.28;;;13.40;94.80;;;;;;5043036;28;20060;-78
2022/05/13 03:05:14;;;;;;;5.63;2.15;;;13.40;94.80;;;;;;5043171;28;20033;-79
2022/05/13 03:07:40;;;;;;;3.47;2.35;;;13.40;94.80;;;;;;5043804;28;20048;-81
2022/05/13 03:10:06;;;;;;;6.45;2.50;;;13.40;94.90;;;;;;5042579;28;20112;-79
2022/05/13 03:12:32;;;;;;;3.80;1.92;;;13.40;94.90;;;;;;5041649;28;20034;-77
2022/05/13 03:14:57;;;;;;;4.45;2.08;;;13.50;94.90;;;;;;5035970;28;20033;-77
2022/05/13 03:17:23;;;;;;;4.07;2.78;;;13.50;94.90;;;;;;5033378;28;20083;-78
2022/05/13 03:19:48;;;;;;;4.82;2.25;;;13.50;94.90;;;;;;5039659;28;20237;-78
2022/05/13 03:22:14;;;;;;;4.28;2.30;;;13.50;94.90;;;;;;5044996;28;20033;-78
2022/05/13 03:24:39;;;;;;;3.00;2.33;;;13.50;94.90;;;;;;5042833;28;20033;-78
2022/05/13 03:27:07;;;;;;;4.68;2.08;;;13.50;95.10;;;;;;5037118;28;20025;-77
2022/05/13 03:29:32;;;;;;;3.92;2.30;;;13.50;95.00;;;;;;5043417;28;20035;-78
2022/05/13 03:31:58;;;;;;;2.97;2.03;;;13.40;95.00;;;;;;5035007;28;21223;-81
2022/05/13 03:34:23;;;;;;;6.90;2.50;;;13.40;95.00;;;;;;5045982;28;20048;-81
2022/05/13 03:36:49;;;;;;;5.07;1.90;;;13.40;95.00;;;;;;5041141;28;20436;-79
2022/05/13 03:39:15;;;;;;;4.45;2.25;;;13.40;95.00;;;;;;5045919;28;20154;-80
2022/05/13 03:41:41;;;;;;;5.82;2.40;;;13.40;95.10;;;;;;5039164;28;20060;-78
2022/05/13 03:44:08;;;;;;;3.85;2.22;;;13.40;95.10;;;;;;5042204;28;20142;-78
2022/05/13 03:46:34;;;;;;;7.72;2.10;;;13.40;95.10;;;;;;5039767;28;20029;-77
2022/05/13 03:49:00;;;;;;;5.38;2.10;;;13.40;95.10;;;;;;5035937;28;20022;-78
2022/05/13 03:51:26;;;;;;;4.65;2.08;;;13.40;95.10;;;;;;5037181;28;20040;-79
2022/05/13 03:53:51;;;;;;;3.50;2.30;;;13.40;95.10;;;;;;5041138;28;20045;-78
2022/05/13 03:56:17;;;;;;;3.55;2.00;;;13.40;95.10;;;;;;5032803;28;20025;-78
2022/05/13 03:58:42;;;;;;;6.30;2.00;;;13.50;95.20;;;;;;5036433;28;22352;-78
2022/05/13 04:01:08;;;;;;;7.55;2.35;;;13.50;95.10;;;;;;5035358;28;20045;-79
2022/05/13 04:03:33;;;;;;;2.25;1.92;;;13.50;95.10;;;;;;5040133;28;20033;-77
2022/05/13 04:08:58;;;;;;;4.47;2.47;;;13.60;95.20;;;;;;5036321;28;20244;-79
2022/05/13 04:11:37;;;;;;;4.55;2.03;;;13.60;95.60;;;;;;5037791;28;20182;-78
2022/05/13 04:16:50;;;;;;;8.27;2.25;;;13.80;95.70;;;;;;5047034;28;20036;-78
2022/05/13 04:19:16;;;;;;;5.30;2.45;;;13.90;95.80;;;;;;5042598;28;20489;-78
2022/05/13 04:21:42;;;;;;;5.43;2.88;;;14.00;95.70;;;;;;5034153;28;20032;-78
2022/05/13 04:24:11;;;;;;;5.10;3.08;;;14.10;95.70;;;;;;5037390;28;20036;-79
2022/05/13 04:26:37;;;;;;;5.55;3.35;;;14.20;95.70;;;;;;5041853;28;20044;-77
2022/05/13 04:29:05;;;;;;;5.93;2.45;;;14.20;95.50;;;;;;5033515;28;20071;-79
2022/05/13 04:31:37;;;;;;;6.38;3.55;;;14.30;95.40;;;;;;5061709;28;20029;-78
2022/05/13 04:34:03;;;;;;;4.53;2.35;;;14.40;95.30;;;;;;5032046;28;20785;-80
2022/05/13 04:36:28;;;;;;;4.38;2.60;;;14.40;95.00;;;;;;5032286;28;20061;-78
2022/05/13 04:38:54;;;;;;;4.38;2.95;;;14.50;94.70;;;;;;5035067;28;20103;-78
2022/05/13 04:44:06;;;;;;;3.88;2.83;;;14.60;94.00;;;;;;5036820;28;20135;-81
2022/05/13 04:46:32;;;;;;;8.82;3.58;;;14.70;93.40;;;;;;5045867;28;20029;-80
2022/05/13 04:48:59;;;;;;;6.85;2.75;;;14.70;93.00;;;;;;5050134;28;20104;-79
2022/05/13 04:51:25;;;;;;;6.00;2.90;;;14.80;92.80;;;;;;5043927;28;20075;-80
2022/05/13 04:53:52;;;;;;;8.15;2.67;;;14.80;92.60;;;;;;5043758;28;20033;-79
2022/05/13 04:56:19;;;;;;;4.20;2.67;;;14.80;92.50;;;;;;5044706;28;20087;-77
2022/05/13 04:58:45;;;;;;;7.60;2.90;;;14.90;92.40;;;;;;5036480;28;20049;-77
2022/05/13 05:01:12;;;;;;;4.80;2.90;;;14.90;92.60;;;;;;5035619;28;20075;-77
2022/05/13 05:03:40;;;;;;;7.22;3.20;;;15.00;92.10;;;;;;5043315;28;20041;-79
2022/05/13 05:06:06;;;;;;;9.45;2.45;;;15.00;91.70;;;;;;5048602;28;20065;-79
2022/05/13 05:08:32;;;;;;;7.22;2.78;;;15.10;91.80;;;;;;5039479;28;20026;-81
2022/05/13 05:10:59;;;;;;;6.00;2.35;;;15.10;91.50;;;;;;5045026;28;20075;-79
2022/05/13 05:13:31;;;;;;;7.03;2.80;;;15.10;91.40;;;;;;5045986;28;20064;-79
2022/05/13 05:15:57;;;;;;;4.05;2.10;;;15.10;91.50;;;;;;5044733;28;20029;-80
2022/05/13 05:18:23;;;;;;;5.30;2.80;;;15.20;91.40;;;;;;5046216;28;20037;-78
2022/05/13 05:20:50;;;;;;;3.70;2.47;;;15.20;91.10;;;;;;5046874;28;20053;-80
2022/05/13 05:23:28;;;;;;;8.93;2.83;;;15.30;91.20;;;;;;5043154;28;20040;-82
2022/05/13 05:25:54;;;;;;;3.88;2.35;;;15.40;91.20;;;;;;5044219;28;20025;-79
2022/05/13 05:28:20;;;;;;;9.30;3.00;;;15.40;91.10;;;;;;5042441;28;20025;-78
2022/05/13 05:30:45;;;;;;;5.13;2.22;;;15.50;90.90;;;;;;5046886;28;20037;-78
2022/05/13 05:33:12;;;;;;;5.32;2.85;;;15.50;91.00;;;;;;5051175;28;20111;-79
2022/05/13 05:35:37;;;;;;;4.32;2.33;;;15.60;90.80;;;;;;5050388;28;20083;-80
2022/05/13 05:38:04;;;;;;;5.03;2.40;;;15.70;90.40;;;;;;5040997;28;20084;-81
2022/05/13 05:40:30;;;;;;;7.70;3.13;;;15.80;90.40;;;;;;5036882;28;20059;-80
2022/05/13 05:42:56;;;;;;;5.45;2.17;;;15.90;90.50;;;;;;5049269;28;20463;-80
2022/05/13 05:45:23;;;;;;;4.40;2.00;;;15.90;90.70;;;;;;5035079;28;20044;-84
2022/05/13 05:47:49;;;;;;;5.68;1.88;;;16.00;90.20;;;;;;5039265;28;20037;-82
2022/05/13 05:50:18;;;;;;;4.38;1.70;;;16.00;88.60;;;;;;5041974;28;20029;-80
2022/05/13 05:52:44;;;;;;;3.80;1.85;;;16.10;88.50;;;;;;5039282;28;20033;-78
2022/05/13 05:58:03;;;;;;;3.72;1.73;;;16.20;88.70;;;;;;5047677;28;20032;-80
2022/05/13 06:00:31;;;;;;;6.93;2.10;;;16.20;87.40;;;;;;5049404;28;20021;-80
2022/05/13 06:02:57;;;;;;;4.05;1.92;;;16.20;86.70;;;;;;5042107;28;20033;-81
2022/05/13 06:05:23;;;;;;;5.72;1.60;;;16.20;86.70;;;;;;5042721;28;20037;-79
2022/05/13 06:07:50;;;;;;;2.15;1.50;;;16.30;86.30;;;;;;5044459;28;20029;-82
2022/05/13 06:10:16;;;;;;;5.05;1.70;;;16.40;86.60;;;;;;5049626;28;20078;-82
2022/05/13 06:12:42;;;;;;;5.00;1.70;;;16.60;86.50;;;;;;5034208;28;20446;-79
2022/05/13 06:15:09;;;;;;;6.45;1.45;;;16.70;85.10;;;;;;5046346;28;20198;-80
2022/05/13 06:17:34;;;;;;;4.60;1.58;;;16.90;85.10;;;;;;5049107;28;20060;-82
2022/05/13 06:20:04;;;;;;;2.25;1.33;;;17.00;84.60;;;;;;5047824;28;20137;-82
2022/05/13 06:22:29;;;;;;;3.22;1.40;;;17.20;84.30;;;;;;5041542;28;20037;-82
2022/05/13 06:24:55;;;;;;;3.42;1.48;;;17.30;84.60;;;;;;5031515;28;20042;-83
2022/05/13 06:27:21;;;;;;;3.78;1.30;;;17.40;82.60;;;;;;5048262;28;20025;-83
2022/05/13 06:29:47;;;;;;;3.40;1.42;;;17.40;81.90;;;;;;5056177;28;20470;-82
2022/05/13 06:32:13;;;;;;;5.82;1.52;;;17.40;81.90;;;;;;5068080;28;20040;-82
2022/05/13 06:34:38;;;;;;;4.25;1.52;;;17.30;82.50;;;;;;5034482;28;20045;-82
2022/05/13 06:37:04;;;;;;;6.07;1.55;;;17.40;82.30;;;;;;5047797;28;20095;-82
2022/05/13 06:39:29;;;;;;;6.95;1.92;;;17.50;82.40;;;;;;5049270;28;20382;-82
2022/05/13 06:41:55;;;;;;;3.83;1.73;;;17.60;81.10;;;;;;5047106;28;20120;-81
2022/05/13 06:44:20;;;;;;;6.28;1.85;;;17.60;81.50;;;;;;5047646;28;20632;-82
2022/05/13 06:46:47;;;;;;;2.65;1.67;;;17.60;82.10;;;;;;5040271;28;20509;-82
2022/05/13 06:49:14;;;;;;;5.28;2.03;;;17.60;81.60;;;;;;5048012;28;20767;-80
2022/05/13 06:51:40;;;;;;;2.50;1.42;;;17.60;81.30;;;;;;5041915;28;20483;-80
2022/05/13 06:54:09;;;;;;;3.88;1.65;;;17.70;81.70;;;;;;5036760;28;20099;-80
2022/05/13 06:56:37;;;;;;;3.30;1.88;;;17.80;81.10;;;;;;5040407;28;20205;-80
2022/05/13 06:59:04;;;;;;;4.20;1.73;;;17.80;80.20;;;;;;5046241;28;20048;-81
2022/05/13 07:01:30;;;;;;;9.32;1.77;;;18.00;81.00;;;;;;5047697;28;20671;-80
2022/05/13 07:03:55;;;;;;;3.28;1.65;;;18.00;81.20;;;;;;5038874;28;20044;-81
2022/05/13 07:06:21;;;;;;;6.40;1.70;;;18.20;81.30;;;;;;5028705;28;20113;-81
2022/05/13 07:08:48;;;;;;;4.35;1.77;;;18.40;80.60;;;;;;5044938;28;20115;-80
2022/05/13 07:11:13;;;;;;;3.88;1.92;;;18.50;80.60;;;;;;5034291;28;20037;-81
2022/05/13 07:13:39;;;;;;;2.38;1.48;;;18.70;78.90;;;;;;5031306;28;20037;-81
2022/05/13 07:16:05;;;;;;;2.95;1.60;;;18.80;78.70;;;;;;5031626;28;20038;-82
2022/05/13 07:18:31;;;;;;;6.75;2.00;;;18.90;77.30;;;;;;5073671;28;20558;-83
2022/05/13 07:20:56;;;;;;;6.15;1.60;;;18.90;78.10;;;;;;5036141;28;20025;-83
2022/05/13 07:23:22;;;;;;;4.25;1.50;;;19.10;76.40;;;;;;5048875;28;20052;-82
2022/05/13 07:25:48;;;;;;;5.20;1.70;;;19.20;76.30;;;;;;5051845;28;20611;-81
2022/05/13 07:28:13;;;;;;;5.40;1.75;;;19.40;75.90;;;;;;5051331;28;20033;-86
2022/05/13 07:30:39;;;;;;;5.40;2.00;;;19.60;75.10;;;;;;5045758;28;20032;-78
2022/05/13 07:33:05;;;;;;;6.13;1.65;;;19.70;74.90;;;;;;5041537;28;20199;-71
2022/05/13 07:35:30;;;;;;;2.15;1.38;;;19.80;74.30;;;;;;5045923;28;20033;-73
2022/05/13 07:37:56;;;;;;;4.03;2.00;;;19.80;74.20;;;;;;5039054;28;20439;-69
2022/05/13 07:43:07;;;;;;;4.32;1.90;;;20.00;74.80;;;;;;5050440;28;20481;-70
2022/05/13 07:45:34;;;;;;;4.20;2.00;;;20.10;72.90;;;;;;5067008;28;20029;-75
2022/05/13 07:48:01;;;;;;;2.88;1.45;;;20.10;71.90;;;;;;5035207;28;20519;-70
2022/05/13 07:50:28;;;;;;;2.33;1.52;;;20.20;72.10;;;;;;5033246;28;20029;-68
2022/05/13 07:52:53;;;;;;;5.47;2.30;;;20.20;69.80;;;;;;5057256;28;20054;-68
2022/05/13 07:55:19;;;;;;;5.57;1.50;;;20.20;69.70;;;;;;5034347;28;20029;-69
2022/05/13 07:57:46;;;;;;;8.10;2.28;;;20.10;68.40;;;;;;5044239;28;20128;-70
2022/05/13 08:00:24;;;;;;;4.53;1.17;;;20.20;69.10;;;;;;5038180;28;20037;-70
2022/05/13 08:02:50;;;;;;;8.93;1.52;;;20.40;69.50;;;;;;5025749;28;20623;-69
2022/05/13 08:05:15;;;;;;;3.88;1.60;;;20.60;69.40;;;;;;5036402;28;20071;-70
2022/05/13 08:07:41;;;;;;;2.50;1.20;;;20.80;68.10;;;;;;5031101;28;20657;-68
2022/05/13 08:10:07;;;;;;;4.57;1.42;;;20.80;67.10;;;;;;5028215;28;20144;-70
2022/05/13 08:12:32;;;;;;;3.80;1.08;;;20.80;66.90;;;;;;5044857;28;20147;-70
2022/05/13 08:14:58;;;;;;;2.65;1.13;;;20.80;67.10;;;;;;5052571;28;20041;-69
2022/05/13 08:17:24;;;;;;;4.75;1.38;;;21.00;67.50;;;;;;5038793;28;20115;-69
2022/05/13 08:19:49;;;;;;;3.13;1.20;;;21.00;67.00;;;;;;5038651;28;20045;-69
2022/05/13 08:22:15;;;;;;;4.07;1.48;;;21.10;66.80;;;;;;5034389;28;20176;-69
2022/05/13 08:24:41;;;;;;;7.82;1.25;;;21.00;66.40;;;;;;5048696;28;20040;-68
2022/05/13 08:27:06;;;;;;;4.43;1.55;;;21.00;66.20;;;;;;5036632;28;20028;-69
2022/05/13 08:29:31;;;;;;;6.57;2.08;;;21.00;66.10;;;;;;5050085;28;20225;-70
2022/05/13 08:31:57;;;;;;;6.80;1.90;;;20.80;66.80;;;;;;5041988;28;20029;-70
2022/05/13 08:34:22;;;;;;;6.32;1.27;;;20.90;67.50;;;;;;5034694;28;20041;-69
2022/05/13 08:36:50;;;;;;;6.50;1.42;;;20.90;66.50;;;;;;5031091;28;20776;-71
2022/05/13 08:39:16;;;;;;;6.22;1.50;;;21.00;67.20;;;;;;5031600;28;20033;-70
2022/05/13 08:42:00;;;;;;;3.47;1.10;;;21.10;67.30;;;;;;5032625;28;20030;-69
2022/05/13 08:44:26;;;;;;;7.32;1.70;;;21.10;67.80;;;;;;5048523;28;20036;-70
2022/05/13 08:47:05;;;;;;;3.72;1.42;;;21.20;67.40;;;;;;5044293;28;20038;-70
2022/05/13 08:49:50;;;;;;;5.57;1.70;;;21.20;67.70;;;;;;5037606;28;20029;-70
2022/05/13 08:55:34;;;;;;;5.65;1.63;;;21.30;67.50;;;;;;5033209;28;20044;-69
2022/05/13 08:58:03;;;;;;;5.03;1.23;;;21.20;66.20;;;;;;5036118;28;20463;-69
2022/05/13 09:00:49;;;;;;;10.80;1.33;;;21.20;68.20;;;;;;5048177;28;20033;-68
2022/05/13 09:03:35;;;;;;;4.80;1.50;;;21.20;65.80;;;;;;5033400;28;20037;-69
2022/05/13 09:06:22;;;;;;;3.08;0.88;;;21.10;65.20;;;;;;5048464;28;20052;-70
2022/05/13 09:08:48;;;;;;;3.67;0.73;;;21.20;66.20;;;;;;5028464;28;20029;-70
2022/05/13 09:11:43;;;;;;;3.75;0.85;;;21.40;64.10;;;;;;5046680;28;20044;-71
2022/05/13 09:14:42;;;;;;;3.83;1.27;;;21.50;62.50;;;;;;5051515;28;20044;-69
2022/05/13 09:17:31;;;;;;;6.85;1.23;;;21.70;63.50;;;;;;5048187;28;20025;-67
2022/05/13 09:20:16;;;;;;;4.55;1.55;;;21.70;64.30;;;;;;5068979;28;20025;-69
2022/05/13 09:22:54;;;;;;;8.75;1.13;;;21.60;63.20;;;;;;5028402;28;20088;-69
2022/05/13 09:25:34;;;;;;;13.40;1.10;;;21.60;63.20;;;;;;5040976;28;20064;-69
2022/05/13 09:28:06;;;;;;;3.83;0.85;;;21.50;63.90;;;;;;5040409;28;20438;-70
2022/05/13 09:30:39;;;;;;;3.13;1.00;;;21.40;63.40;;;;;;5038829;28;20033;-69
2022/05/13 09:33:25;;;;;;;;;;;21.50;65.60;;;;;;5044449;28;20029;-69
2022/05/13 09:36:06;;;;;;;4.45;0.77;;;21.70;64.50;;;;;;5035576;28;19908;-69
2022/05/13 09:38:45;;;;;;;3.95;1.40;;;21.80;63.70;;;;;;5050079;28;20383;-68
2022/05/13 09:41:13;;;;;;;4.40;1.30;;;21.70;63.40;;;;;;5039069;28;20059;-70
2022/05/13 09:43:51;;;;;;;5.70;2.03;;;21.70;64.00;;;;;;5051619;28;20051;-70
2022/05/13 09:46:22;;;;;;;5.65;1.45;;;21.70;64.60;;;;;;5035422;28;20028;-68
2022/05/13 09:48:55;;;;;;;4.70;1.23;;;21.70;65.10;;;;;;5044913;28;20207;-69
2022/05/13 09:51:36;;;;;;;4.35;0.95;;;21.60;64.60;;;;;;5046449;28;20033;-70
2022/05/13 09:54:20;;;;;;;4.60;0.98;;;21.60;63.10;;;;;;5040451;28;20025;-72
2022/05/13 09:56:54;;;;;;;5.38;1.20;;;21.70;64.20;;;;;;5040972;28;20410;-68
2022/05/13 09:59:22;;;;;;;5.22;0.93;;;21.90;63.60;;;;;;5062154;28;20055;-68
2022/05/13 10:01:48;;;;;;;4.85;1.65;;;22.10;62.90;;;;;;5048029;28;20657;-68
2022/05/13 10:04:21;;;;;;;5.43;1.10;;;22.10;62.20;;;;;;5045640;28;20116;-71
2022/05/13 10:06:47;;;;;;;6.28;1.45;;;21.80;62.40;;;;;;5037055;28;20064;-68
2022/05/13 10:15:20;;;;;;;3.03;0.95;;;21.10;61.40;;;;;;5045252;28;20056;-68
2022/05/13 10:17:50;;;;;;;1.63;0.70;;;21.20;60.60;;;;;;5046091;28;20544;-70
2022/05/13 10:20:33;;;;;;;2.50;1.13;;;21.40;60.90;;;;;;5048752;28;20025;-70
2022/05/13 10:23:09;;;;;;;4.70;1.10;;;21.60;59.50;;;;;;5046946;28;20025;-70
2022/05/13 10:25:55;;;;;;;2.78;0.82;;;21.60;59.80;;;;;;5043768;28;20024;-71
2022/05/13 10:28:29;;;;;;;4.82;0.80;;;21.60;61.20;;;;;;5053299;28;20024;-70
2022/05/13 10:31:19;;;;;;;6.50;0.82;;;21.50;60.80;;;;;;5038261;28;20171;-70
2022/05/13 10:33:57;;;;;;;8.60;1.15;;;21.30;60.90;;;;;;5041460;28;20497;-69
2022/05/13 10:36:38;;;;;;;5.03;0.82;;;21.10;62.20;;;;;;5047642;28;20028;-67
2022/05/13 10:39:22;;;;;;;2.25;1.00;;;21.00;62.20;;;;;;5048025;28;20380;-71
2022/05/13 10:41:55;;;;;;;3.97;1.40;;;20.90;62.20;;;;;;5028565;28;20113;-71
2022/05/13 10:44:38;;;;;;;4.30;1.23;;;20.80;60.90;;;;;;5028645;28;20052;-71
2022/05/13 10:47:24;;;;;;;2.40;0.93;;;20.80;61.30;;;;;;5034693;28;20040;-71
2022/05/13 10:49:49;;;;;;;5.22;0.90;;;20.70;61.90;;;;;;5046945;28;20256;-69
2022/05/13 10:52:34;;;;;;;1.88;0.80;;;20.90;61.40;;;;;;5048403;28;20040;-68
2022/05/13 10:55:16;;;;;;;2.50;0.75;;;21.00;60.30;;;;;;5029220;28;20378;-69
2022/05/13 10:57:57;;;;;;;2.55;0.70;;;21.20;61.90;;;;;;5030198;28;20029;-68
2022/05/13 11:01:09;;;;;;;4.38;1.52;;;21.50;60.60;;;;;;5046230;28;20044;-69
2022/05/13 11:03:50;;;;;;;2.47;0.95;;;21.50;59.60;;;;;;5034347;28;20057;-69
2022/05/13 11:06:30;;;;;;;3.10;0.90;;;21.40;60.40;;;;;;5029353;28;20029;-68
2022/05/13 11:09:18;;;;;;;2.83;0.70;;;21.40;61.10;;;;;;5033233;28;20697;-67
2022/05/13 11:11:45;;;;;;;4.25;0.70;;;21.50;61.40;;;;;;5036051;28;20045;-68
2022/05/13 11:14:43;;;;;;;2.33;0.63;;;21.60;61.30;;;;;;5047562;28;21238;-68
2022/05/13 11:17:20;;;;;;;5.10;0.70;;;21.90;60.70;;;;;;5047456;28;20049;-69
2022/05/13 11:20:13;;;;;;;4.57;1.10;;;22.10;59.70;;;;;;5045247;28;20078;-67
2022/05/13 11:22:44;;;;;;;3.40;0.75;;;22.20;59.60;;;;;;5048414;28;20534;-68
2022/05/13 11:28:34;;;;;;;6.60;0.68;;;22.00;60.30;;;;;;5032761;28;20091;-68
2022/05/13 11:31:32;;;;;;;6.35;0.85;;;21.70;58.90;;;;;;5037797;28;20029;-68
2022/05/13 11:34:22;;;;;;;4.00;1.30;;;21.70;59.90;;;;;;5041691;28;20037;-69
2022/05/13 11:37:05;;;;;;;5.72;1.50;;;21.50;60.50;;;;;;5047755;28;20442;-70
2022/05/13 11:39:44;;;;;;;9.23;1.02;;;21.30;61.20;;;;;;5046536;28;20175;-70
2022/05/13 11:43:18;;;;;;;5.38;0.82;;;21.20;61.10;;;;;;5031699;28;20033;-70
2022/05/13 11:45:52;;;;;;;9.52;1.80;;;21.50;63.60;;;;;;5027558;28;20475;-70
2022/05/13 11:48:29;;;;;;;8.85;1.48;;;22.00;61.10;;;;;;5032167;28;20033;-70
2022/05/13 11:51:25;;;;;;;3.97;1.00;;;22.20;60.70;;;;;;5037204;28;20056;-70
2022/05/13 11:53:52;;;;;;;3.78;1.17;;;22.30;60.60;;;;;;5050788;28;20036;-70
2022/05/13 11:56:30;;;;;;;1.85;0.70;;;22.00;59.80;;;;;;5051343;28;20025;-70
2022/05/13 11:59:11;;;;;;;4.47;0.80;;;21.80;61.00;;;;;;5052531;28;20360;-69
2022/05/13 12:01:46;;;;;;;4.55;0.70;;;21.80;60.30;;;;;;5051776;28;20032;-70
2022/05/13 12:04:11;;;;;;;3.80;1.20;;;21.80;58.10;;;;;;5051663;28;20025;-69
2022/05/13 12:06:52;;;;;;;2.67;1.40;;;21.80;57.50;;;;;;5051612;28;20078;-70
2022/05/13 12:09:32;;;;;;;4.22;0.93;;;21.70;55.50;;;;;;5049315;28;20026;-70
2022/05/13 12:12:29;;;;;;;3.60;0.65;;;21.60;57.20;;;;;;5046383;28;20036;-70
2022/05/13 12:15:22;;;;;;;3.97;0.75;;;21.80;56.30;;;;;;5052168;28;20116;-70
2022/05/13 12:18:09;;;;;;;4.00;1.23;;;21.90;54.10;;;;;;5049176;28;20051;-73
2022/05/13 12:21:01;;;;;;;4.30;0.70;;;21.90;53.70;;;;;;5041078;28;20040;-68
2022/05/13 12:23:33;;;;;;;;;;;22.00;54.40;;;;;;5045112;28;20055;-69
2022/05/13 12:26:06;;;;;;;6.00;0.95;;;22.10;54.20;;;;;;5050188;28;19928;-69
2022/05/13 12:28:41;;;;;;;3.95;0.80;;;22.20;53.30;;;;;;5041681;28;20029;-68
2022/05/13 12:31:26;;;;;;;6.50;0.77;;;22.30;52.70;;;;;;5045966;28;20021;-69
2022/05/13 12:40:00;;;;;;;6.28;1.20;;;22.50;52.30;;;;;;5049965;28;20063;-68
2022/05/13 12:42:42;;;;;;;4.43;0.70;;;22.20;52.50;;;;;;5039101;28;20736;-73
2022/05/13 12:45:26;;;;;;;2.67;1.00;;;22.00;53.70;;;;;;5042892;28;20068;-70
2022/05/13 12:47:57;;;;;;;3.20;0.80;;;21.70;53.80;;;;;;5050110;28;20075;-71
2022/05/13 12:50:43;;;;;;;1.80;0.90;;;21.50;53.50;;;;;;5051991;28;20028;-66
2022/05/13 12:53:27;;;;;;;1.60;0.70;;;21.30;55.20;;;;;;5050802;28;20116;-67
2022/05/13 12:55:55;;;;;;;2.10;0.80;;;21.30;54.20;;;;;;5034348;28;20399;-74
2022/05/13 12:58:23;;;;;;;3.70;0.70;;;21.30;53.80;;;;;;5051870;28;20028;-74
2022/05/13 13:00:51;;;;;;;2.08;0.73;;;21.40;53.90;;;;;;5067945;28;20035;-75
2022/05/13 13:03:19;;;;;;;5.40;0.88;;;21.50;53.90;;;;;;5050779;28;20035;-75
2022/05/13 13:05:57;;;;;;;3.72;0.75;;;21.60;53.40;;;;;;5054037;28;20035;-75
2022/05/13 13:08:26;;;;;;;4.47;0.93;;;21.70;53.00;;;;;;5050625;28;20053;-75
2022/05/13 13:11:22;;;;;;;3.72;0.98;;;21.70;52.30;;;;;;5050363;28;20509;-75
2022/05/13 13:13:56;;;;;;;4.95;0.65;;;21.50;52.70;;;;;;5042508;28;20037;-75
2022/05/13 13:16:39;;;;;;;4.13;1.23;;;21.30;53.00;;;;;;5048623;28;20559;-75
2022/05/13 13:19:19;;;;;;;3.58;0.70;;;21.10;53.20;;;;;;5044596;28;20029;-75
2022/05/13 13:21:50;;;;;;;3.20;0.70;;;21.00;53.40;;;;;;5049476;28;20033;-74
2022/05/13 13:24:19;;;;;;;3.80;1.10;;;21.00;53.10;;;;;;5047969;28;20040;-74
2022/05/13 13:26:50;;;;;;;5.40;0.70;;;20.80;54.60;;;;;;5046034;28;20033;-75
2022/05/13 13:29:22;;;;;;;2.65;0.70;;;20.70;54.30;;;;;;5050625;28;20025;-75
2022/05/13 13:31:48;;;;;;;3.88;0.90;;;20.60;55.20;;;;;;5046414;28;20033;-74
2022/05/13 13:34:51;;;;;;;2.20;0.60;;;20.60;55.10;;;;;;5045256;28;20037;-75
2022/05/13 13:37:20;;;;;;;4.25;1.42;;;20.60;55.50;;;;;;5042082;28;20119;-75
2022/05/13 13:39:45;;;;;;;10.32;1.38;;;20.70;55.40;;;;;;5045742;28;20037;-74
2022/05/13 13:42:14;;;;;;;8.20;1.77;;;21.00;55.80;;;;;;5036630;28;20423;-73
2022/05/13 13:44:42;;;;;;;3.15;0.73;;;21.00;54.50;;;;;;5039426;28;20040;-74